sensor_id;sensor_type;location;lat;lon;timestamp;P1;durP1;ratioP1;P2;durP2;ratioP2
1685;SDS011;840;47.980;7.830;2023-08-12T00:02:09;5.80;;;2.60;;
1685;SDS011;840;47.980;7.830;2023-08-12T00:04:36;6.77;;;2.37;;
1685;SDS011;840;47.980;7.830;2023-08-12T00:07:03;3.53;;;2.43;;
1685;SDS011;840;47.980;7.830;2023-08-12T00:09:30;1.90;;;1.77;;
1685;SDS011;840;47.980;7.830;2023-08-12T00:11:58;1.83;;;1.73;;
1685;SDS011;840;47.980;7.830;2023-08-12T00:14:24;2.77;;;1.97;;
1685;SDS011;840;47.980;7.830;2023-08-12T00:16:51;6.23;;;2.57;;
1685;SDS011;840;47.980;7.830;2023-08-12T00:19:18;2.10;;;1.87;;
1685;SDS011;840;47.980;7.830;2023-08-12T00:21:45;2.40;;;2.20;;
1685;SDS011;840;47.980;7.830;2023-08-12T00:24:11;2.10;;;1.90;;
1685;SDS011;840;47.980;7.830;2023-08-12T00:26:38;2.63;;;2.43;;
1685;SDS011;840;47.980;7.830;2023-08-12T00:29:06;2.47;;;2.27;;
1685;SDS011;840;47.980;7.830;2023-08-12T00:31:33;2.10;;;1.70;;
1685;SDS011;840;47.980;7.830;2023-08-12T00:33:59;2.50;;;1.90;;
1685;SDS011;840;47.980;7.830;2023-08-12T00:36:26;2.17;;;1.83;;
1685;SDS011;840;47.980;7.830;2023-08-12T00:38:53;2.43;;;1.97;;
1685;SDS011;840;47.980;7.830;2023-08-12T00:41:20;4.73;;;1.80;;
1685;SDS011;840;47.980;7.830;2023-08-12T00:43:46;2.37;;;2.17;;
1685;SDS011;840;47.980;7.830;2023-08-12T00:46:15;1.90;;;1.80;;
1685;SDS011;840;47.980;7.830;2023-08-12T00:48:41;3.23;;;2.40;;
1685;SDS011;840;47.980;7.830;2023-08-12T00:51:08;1.90;;;1.80;;
1685;SDS011;840;47.980;7.830;2023-08-12T00:53:35;2.00;;;1.80;;
1685;SDS011;840;47.980;7.830;2023-08-12T00:56:02;2.90;;;1.60;;
1685;SDS011;840;47.980;7.830;2023-08-12T00:58:29;3.10;;;2.00;;
1685;SDS011;840;47.980;7.830;2023-08-12T01:00:56;2.77;;;2.57;;
1685;SDS011;840;47.980;7.830;2023-08-12T01:03:25;3.10;;;2.20;;
1685;SDS011;840;47.980;7.830;2023-08-12T01:05:52;3.00;;;2.10;;
1685;SDS011;840;47.980;7.830;2023-08-12T01:08:19;2.40;;;2.20;;
1685;SDS011;840;47.980;7.830;2023-08-12T01:10:46;2.70;;;2.07;;
1685;SDS011;840;47.980;7.830;2023-08-12T01:13:19;2.50;;;2.30;;
1685;SDS011;840;47.980;7.830;2023-08-12T01:16:00;2.10;;;1.90;;
1685;SDS011;840;47.980;7.830;2023-08-12T01:18:30;4.30;;;1.93;;
1685;SDS011;840;47.980;7.830;2023-08-12T01:20:58;3.70;;;2.53;;
1685;SDS011;840;47.980;7.830;2023-08-12T01:23:30;2.10;;;2.00;;
1685;SDS011;840;47.980;7.830;2023-08-12T01:25:56;2.10;;;2.00;;
1685;SDS011;840;47.980;7.830;2023-08-12T01:28:23;3.43;;;2.07;;
1685;SDS011;840;47.980;7.830;2023-08-12T01:30:55;3.43;;;2.03;;
1685;SDS011;840;47.980;7.830;2023-08-12T01:33:25;1.83;;;1.60;;
1685;SDS011;840;47.980;7.830;2023-08-12T01:36:00;3.43;;;2.10;;
1685;SDS011;840;47.980;7.830;2023-08-12T01:38:36;2.77;;;1.97;;
1685;SDS011;840;47.980;7.830;2023-08-12T01:41:06;7.13;;;2.10;;
1685;SDS011;840;47.980;7.830;2023-08-12T01:43:35;2.70;;;2.50;;
1685;SDS011;840;47.980;7.830;2023-08-12T01:46:02;3.00;;;2.47;;
1685;SDS011;840;47.980;7.830;2023-08-12T01:48:29;2.73;;;2.37;;
1685;SDS011;840;47.980;7.830;2023-08-12T01:50:55;6.03;;;2.67;;
1685;SDS011;840;47.980;7.830;2023-08-12T01:53:22;3.80;;;2.50;;
1685;SDS011;840;47.980;7.830;2023-08-12T01:55:51;4.00;;;2.53;;
1685;SDS011;840;47.980;7.830;2023-08-12T01:58:18;3.80;;;2.37;;
1685;SDS011;840;47.980;7.830;2023-08-12T02:00:45;2.87;;;1.87;;
1685;SDS011;840;47.980;7.830;2023-08-12T02:03:12;2.50;;;1.90;;
1685;SDS011;840;47.980;7.830;2023-08-12T02:05:38;4.13;;;1.90;;
1685;SDS011;840;47.980;7.830;2023-08-12T02:08:06;2.67;;;2.43;;
1685;SDS011;840;47.980;7.830;2023-08-12T02:10:33;2.13;;;1.93;;
1685;SDS011;840;47.980;7.830;2023-08-12T02:13:01;2.43;;;2.20;;
1685;SDS011;840;47.980;7.830;2023-08-12T02:15:28;2.23;;;2.03;;
1685;SDS011;840;47.980;7.830;2023-08-12T02:17:55;2.43;;;2.23;;
1685;SDS011;840;47.980;7.830;2023-08-12T02:20:23;1.90;;;1.80;;
1685;SDS011;840;47.980;7.830;2023-08-12T02:22:50;4.33;;;3.13;;
1685;SDS011;840;47.980;7.830;2023-08-12T02:25:17;3.33;;;2.43;;
1685;SDS011;840;47.980;7.830;2023-08-12T02:27:44;2.30;;;2.10;;
1685;SDS011;840;47.980;7.830;2023-08-12T02:30:13;3.03;;;2.37;;
1685;SDS011;840;47.980;7.830;2023-08-12T02:32:40;2.13;;;2.00;;
1685;SDS011;840;47.980;7.830;2023-08-12T02:35:08;2.43;;;2.23;;
1685;SDS011;840;47.980;7.830;2023-08-12T02:37:35;3.20;;;2.47;;
1685;SDS011;840;47.980;7.830;2023-08-12T02:40:02;2.10;;;1.83;;
1685;SDS011;840;47.980;7.830;2023-08-12T02:42:30;2.70;;;2.40;;
1685;SDS011;840;47.980;7.830;2023-08-12T02:44:57;3.17;;;2.73;;
1685;SDS011;840;47.980;7.830;2023-08-12T02:47:26;2.60;;;2.40;;
1685;SDS011;840;47.980;7.830;2023-08-12T02:49:53;2.57;;;1.87;;
1685;SDS011;840;47.980;7.830;2023-08-12T02:52:19;3.70;;;2.50;;
1685;SDS011;840;47.980;7.830;2023-08-12T02:54:46;3.30;;;2.73;;
1685;SDS011;840;47.980;7.830;2023-08-12T02:57:13;2.53;;;2.17;;
1685;SDS011;840;47.980;7.830;2023-08-12T02:59:39;2.60;;;2.40;;
1685;SDS011;840;47.980;7.830;2023-08-12T03:02:06;3.20;;;3.00;;
1685;SDS011;840;47.980;7.830;2023-08-12T03:04:34;2.10;;;1.90;;
1685;SDS011;840;47.980;7.830;2023-08-12T03:07:01;2.10;;;1.90;;
1685;SDS011;840;47.980;7.830;2023-08-12T03:09:28;6.17;;;2.13;;
1685;SDS011;840;47.980;7.830;2023-08-12T03:11:55;2.77;;;1.80;;
1685;SDS011;840;47.980;7.830;2023-08-12T03:14:26;2.80;;;2.23;;
1685;SDS011;840;47.980;7.830;2023-08-12T03:16:54;5.57;;;2.80;;
1685;SDS011;840;47.980;7.830;2023-08-12T03:19:21;2.00;;;1.90;;
1685;SDS011;840;47.980;7.830;2023-08-12T03:21:49;2.37;;;2.27;;
1685;SDS011;840;47.980;7.830;2023-08-12T03:24:16;3.23;;;2.80;;
1685;SDS011;840;47.980;7.830;2023-08-12T03:26:42;2.53;;;1.70;;
1685;SDS011;840;47.980;7.830;2023-08-12T03:29:09;9.53;;;2.97;;
1685;SDS011;840;47.980;7.830;2023-08-12T03:31:36;2.77;;;2.57;;
1685;SDS011;840;47.980;7.830;2023-08-12T03:34:03;3.00;;;2.70;;
1685;SDS011;840;47.980;7.830;2023-08-12T03:36:29;5.60;;;2.33;;
1685;SDS011;840;47.980;7.830;2023-08-12T03:38:57;4.40;;;2.53;;
1685;SDS011;840;47.980;7.830;2023-08-12T03:41:24;2.00;;;1.80;;
1685;SDS011;840;47.980;7.830;2023-08-12T03:43:51;3.33;;;2.80;;
1685;SDS011;840;47.980;7.830;2023-08-12T03:46:18;4.83;;;2.60;;
1685;SDS011;840;47.980;7.830;2023-08-12T03:48:44;2.73;;;2.53;;
1685;SDS011;840;47.980;7.830;2023-08-12T03:51:11;2.90;;;2.60;;
1685;SDS011;840;47.980;7.830;2023-08-12T03:53:38;2.53;;;2.33;;
1685;SDS011;840;47.980;7.830;2023-08-12T03:56:06;4.10;;;1.90;;
1685;SDS011;840;47.980;7.830;2023-08-12T03:58:32;4.50;;;2.20;;
1685;SDS011;840;47.980;7.830;2023-08-12T04:00:59;2.67;;;2.47;;
1685;SDS011;840;47.980;7.830;2023-08-12T04:03:26;2.07;;;1.87;;
1685;SDS011;840;47.980;7.830;2023-08-12T04:05:53;3.10;;;2.60;;
1685;SDS011;840;47.980;7.830;2023-08-12T04:08:22;2.87;;;2.40;;
1685;SDS011;840;47.980;7.830;2023-08-12T04:10:50;3.03;;;2.20;;
1685;SDS011;840;47.980;7.830;2023-08-12T04:13:18;2.50;;;2.13;;
1685;SDS011;840;47.980;7.830;2023-08-12T04:15:47;2.37;;;2.17;;
1685;SDS011;840;47.980;7.830;2023-08-12T04:18:15;3.10;;;2.10;;
1685;SDS011;840;47.980;7.830;2023-08-12T04:20:44;2.70;;;2.43;;
1685;SDS011;840;47.980;7.830;2023-08-12T04:23:11;2.30;;;2.07;;
1685;SDS011;840;47.980;7.830;2023-08-12T04:25:38;6.20;;;2.50;;
1685;SDS011;840;47.980;7.830;2023-08-12T04:28:05;2.50;;;2.30;;
1685;SDS011;840;47.980;7.830;2023-08-12T04:30:33;2.90;;;2.70;;
1685;SDS011;840;47.980;7.830;2023-08-12T04:33:00;2.47;;;2.27;;
1685;SDS011;840;47.980;7.830;2023-08-12T04:35:26;3.47;;;2.50;;
1685;SDS011;840;47.980;7.830;2023-08-12T04:37:53;4.03;;;3.00;;
1685;SDS011;840;47.980;7.830;2023-08-12T04:40:20;3.23;;;2.43;;
1685;SDS011;840;47.980;7.830;2023-08-12T04:42:47;4.03;;;2.17;;
1685;SDS011;840;47.980;7.830;2023-08-12T04:45:14;3.67;;;2.23;;
1685;SDS011;840;47.980;7.830;2023-08-12T04:47:42;3.83;;;2.87;;
1685;SDS011;840;47.980;7.830;2023-08-12T04:50:09;4.87;;;2.00;;
1685;SDS011;840;47.980;7.830;2023-08-12T04:52:36;4.50;;;1.87;;
1685;SDS011;840;47.980;7.830;2023-08-12T04:55:03;2.33;;;2.13;;
1685;SDS011;840;47.980;7.830;2023-08-12T04:57:30;2.47;;;2.27;;
1685;SDS011;840;47.980;7.830;2023-08-12T04:59:57;2.57;;;2.37;;
1685;SDS011;840;47.980;7.830;2023-08-12T05:02:24;2.77;;;2.57;;
1685;SDS011;840;47.980;7.830;2023-08-12T05:04:52;2.80;;;2.60;;
1685;SDS011;840;47.980;7.830;2023-08-12T05:07:19;4.00;;;3.03;;
1685;SDS011;840;47.980;7.830;2023-08-12T05:09:45;3.17;;;2.87;;
1685;SDS011;840;47.980;7.830;2023-08-12T05:12:12;2.90;;;2.20;;
1685;SDS011;840;47.980;7.830;2023-08-12T05:14:39;3.17;;;2.30;;
1685;SDS011;840;47.980;7.830;2023-08-12T05:17:06;3.83;;;2.43;;
1685;SDS011;840;47.980;7.830;2023-08-12T05:19:33;2.03;;;1.90;;
1685;SDS011;840;47.980;7.830;2023-08-12T05:22:01;2.93;;;2.63;;
1685;SDS011;840;47.980;7.830;2023-08-12T05:24:28;2.50;;;2.30;;
1685;SDS011;840;47.980;7.830;2023-08-12T05:26:55;3.93;;;3.53;;
1685;SDS011;840;47.980;7.830;2023-08-12T05:29:21;2.60;;;2.40;;
1685;SDS011;840;47.980;7.830;2023-08-12T05:31:48;3.70;;;2.30;;
1685;SDS011;840;47.980;7.830;2023-08-12T05:34:15;3.50;;;2.33;;
1685;SDS011;840;47.980;7.830;2023-08-12T05:36:41;3.47;;;2.30;;
1685;SDS011;840;47.980;7.830;2023-08-12T05:39:09;2.30;;;1.93;;
1685;SDS011;840;47.980;7.830;2023-08-12T05:41:36;2.93;;;2.60;;
1685;SDS011;840;47.980;7.830;2023-08-12T05:44:03;2.27;;;2.07;;
1685;SDS011;840;47.980;7.830;2023-08-12T05:46:31;3.50;;;2.50;;
1685;SDS011;840;47.980;7.830;2023-08-12T05:48:57;3.07;;;2.87;;
1685;SDS011;840;47.980;7.830;2023-08-12T05:51:24;2.43;;;2.23;;
1685;SDS011;840;47.980;7.830;2023-08-12T05:53:51;3.17;;;2.87;;
1685;SDS011;840;47.980;7.830;2023-08-12T05:56:20;1.80;;;1.70;;
1685;SDS011;840;47.980;7.830;2023-08-12T05:58:46;2.90;;;2.70;;
1685;SDS011;840;47.980;7.830;2023-08-12T06:01:13;2.27;;;2.07;;
1685;SDS011;840;47.980;7.830;2023-08-12T06:03:41;4.50;;;2.83;;
1685;SDS011;840;47.980;7.830;2023-08-12T06:06:08;3.63;;;2.40;;
1685;SDS011;840;47.980;7.830;2023-08-12T06:08:34;2.50;;;2.20;;
1685;SDS011;840;47.980;7.830;2023-08-12T06:11:01;2.83;;;2.13;;
1685;SDS011;840;47.980;7.830;2023-08-12T06:13:29;2.63;;;1.97;;
1685;SDS011;840;47.980;7.830;2023-08-12T06:15:56;6.37;;;2.27;;
1685;SDS011;840;47.980;7.830;2023-08-12T06:18:23;4.30;;;2.47;;
1685;SDS011;840;47.980;7.830;2023-08-12T06:20:49;2.33;;;2.13;;
1685;SDS011;840;47.980;7.830;2023-08-12T06:23:16;2.97;;;2.77;;
1685;SDS011;840;47.980;7.830;2023-08-12T06:25:43;2.70;;;2.50;;
1685;SDS011;840;47.980;7.830;2023-08-12T06:28:10;4.80;;;2.07;;
1685;SDS011;840;47.980;7.830;2023-08-12T06:30:38;2.43;;;2.23;;
1685;SDS011;840;47.980;7.830;2023-08-12T06:33:04;2.53;;;2.10;;
1685;SDS011;840;47.980;7.830;2023-08-12T06:35:31;2.80;;;2.50;;
1685;SDS011;840;47.980;7.830;2023-08-12T06:37:58;2.50;;;2.40;;
1685;SDS011;840;47.980;7.830;2023-08-12T06:40:25;4.00;;;2.20;;
1685;SDS011;840;47.980;7.830;2023-08-12T06:42:52;2.87;;;2.67;;
1685;SDS011;840;47.980;7.830;2023-08-12T06:45:19;6.00;;;3.60;;
1685;SDS011;840;47.980;7.830;2023-08-12T06:47:47;2.30;;;2.10;;
1685;SDS011;840;47.980;7.830;2023-08-12T06:50:14;3.70;;;3.27;;
1685;SDS011;840;47.980;7.830;2023-08-12T06:52:41;3.17;;;2.97;;
1685;SDS011;840;47.980;7.830;2023-08-12T06:55:08;4.00;;;3.60;;
1685;SDS011;840;47.980;7.830;2023-08-12T06:57:34;3.67;;;2.50;;
1685;SDS011;840;47.980;7.830;2023-08-12T07:00:01;3.77;;;3.47;;
1685;SDS011;840;47.980;7.830;2023-08-12T07:02:29;7.83;;;2.80;;
1685;SDS011;840;47.980;7.830;2023-08-12T07:04:57;3.20;;;3.00;;
1685;SDS011;840;47.980;7.830;2023-08-12T07:07:24;3.13;;;2.67;;
1685;SDS011;840;47.980;7.830;2023-08-12T07:09:51;3.13;;;2.87;;
1685;SDS011;840;47.980;7.830;2023-08-12T07:12:18;4.23;;;2.70;;
1685;SDS011;840;47.980;7.830;2023-08-12T07:14:44;4.50;;;4.10;;
1685;SDS011;840;47.980;7.830;2023-08-12T07:17:11;3.27;;;3.00;;
1685;SDS011;840;47.980;7.830;2023-08-12T07:19:38;3.03;;;2.73;;
1685;SDS011;840;47.980;7.830;2023-08-12T07:22:06;2.97;;;2.77;;
1685;SDS011;840;47.980;7.830;2023-08-12T07:24:32;2.20;;;2.10;;
1685;SDS011;840;47.980;7.830;2023-08-12T07:27:00;2.60;;;2.40;;
1685;SDS011;840;47.980;7.830;2023-08-12T07:29:26;2.23;;;2.00;;
1685;SDS011;840;47.980;7.830;2023-08-12T07:31:53;3.10;;;2.90;;
1685;SDS011;840;47.980;7.830;2023-08-12T07:34:20;3.03;;;2.20;;
1685;SDS011;840;47.980;7.830;2023-08-12T07:36:47;2.60;;;2.40;;
1685;SDS011;840;47.980;7.830;2023-08-12T07:39:16;2.90;;;2.70;;
1685;SDS011;840;47.980;7.830;2023-08-12T07:41:42;2.73;;;2.40;;
1685;SDS011;840;47.980;7.830;2023-08-12T07:44:09;2.40;;;2.20;;
1685;SDS011;840;47.980;7.830;2023-08-12T07:46:36;2.93;;;2.70;;
1685;SDS011;840;47.980;7.830;2023-08-12T07:49:03;2.73;;;2.53;;
1685;SDS011;840;47.980;7.830;2023-08-12T07:51:30;2.90;;;2.70;;
1685;SDS011;840;47.980;7.830;2023-08-12T07:53:56;2.87;;;2.40;;
1685;SDS011;840;47.980;7.830;2023-08-12T07:56:24;4.30;;;2.80;;
1685;SDS011;840;47.980;7.830;2023-08-12T07:58:51;3.37;;;2.70;;
1685;SDS011;840;47.980;7.830;2023-08-12T08:01:18;3.47;;;2.83;;
1685;SDS011;840;47.980;7.830;2023-08-12T08:03:45;4.23;;;3.90;;
1685;SDS011;840;47.980;7.830;2023-08-12T08:06:11;3.93;;;3.53;;
1685;SDS011;840;47.980;7.830;2023-08-12T08:08:38;3.60;;;3.30;;
1685;SDS011;840;47.980;7.830;2023-08-12T08:11:05;4.00;;;3.50;;
1685;SDS011;840;47.980;7.830;2023-08-12T08:13:33;8.17;;;3.43;;
1685;SDS011;840;47.980;7.830;2023-08-12T08:15:59;3.20;;;2.90;;
1685;SDS011;840;47.980;7.830;2023-08-12T08:18:27;4.30;;;3.90;;
1685;SDS011;840;47.980;7.830;2023-08-12T08:20:53;3.60;;;3.40;;
1685;SDS011;840;47.980;7.830;2023-08-12T08:23:20;3.30;;;3.00;;
1685;SDS011;840;47.980;7.830;2023-08-12T08:25:47;3.60;;;3.30;;
1685;SDS011;840;47.980;7.830;2023-08-12T08:28:14;4.50;;;4.10;;
1685;SDS011;840;47.980;7.830;2023-08-12T08:30:42;5.77;;;3.60;;
1685;SDS011;840;47.980;7.830;2023-08-12T08:33:09;4.20;;;3.87;;
1685;SDS011;840;47.980;7.830;2023-08-12T08:35:36;4.03;;;3.70;;
1685;SDS011;840;47.980;7.830;2023-08-12T08:38:03;4.63;;;4.07;;
1685;SDS011;840;47.980;7.830;2023-08-12T08:40:30;3.80;;;3.40;;
1685;SDS011;840;47.980;7.830;2023-08-12T08:42:58;4.03;;;2.67;;
1685;SDS011;840;47.980;7.830;2023-08-12T08:45:29;4.93;;;3.13;;
1685;SDS011;840;47.980;7.830;2023-08-12T08:48:00;5.90;;;3.40;;
1685;SDS011;840;47.980;7.830;2023-08-12T08:50:28;4.07;;;3.70;;
1685;SDS011;840;47.980;7.830;2023-08-12T08:52:56;3.60;;;3.40;;
1685;SDS011;840;47.980;7.830;2023-08-12T08:55:23;3.57;;;3.27;;
1685;SDS011;840;47.980;7.830;2023-08-12T08:57:50;3.60;;;3.40;;
1685;SDS011;840;47.980;7.830;2023-08-12T09:00:18;3.87;;;3.30;;
1685;SDS011;840;47.980;7.830;2023-08-12T09:02:45;5.03;;;3.50;;
1685;SDS011;840;47.980;7.830;2023-08-12T09:05:14;3.70;;;3.40;;
1685;SDS011;840;47.980;7.830;2023-08-12T09:07:42;6.83;;;4.17;;
1685;SDS011;840;47.980;7.830;2023-08-12T09:10:10;6.10;;;4.70;;
1685;SDS011;840;47.980;7.830;2023-08-12T09:12:36;8.40;;;4.30;;
1685;SDS011;840;47.980;7.830;2023-08-12T09:15:04;10.30;;;4.37;;
1685;SDS011;840;47.980;7.830;2023-08-12T09:17:31;6.50;;;4.87;;
1685;SDS011;840;47.980;7.830;2023-08-12T09:19:58;4.70;;;3.80;;
1685;SDS011;840;47.980;7.830;2023-08-12T09:22:27;5.17;;;4.77;;
1685;SDS011;840;47.980;7.830;2023-08-12T09:24:55;4.73;;;3.90;;
1685;SDS011;840;47.980;7.830;2023-08-12T09:27:22;5.13;;;4.43;;
1685;SDS011;840;47.980;7.830;2023-08-12T09:29:49;5.67;;;4.47;;
1685;SDS011;840;47.980;7.830;2023-08-12T09:32:21;5.63;;;4.97;;
1685;SDS011;840;47.980;7.830;2023-08-12T09:34:49;8.37;;;4.70;;
1685;SDS011;840;47.980;7.830;2023-08-12T09:37:17;5.03;;;4.40;;
1685;SDS011;840;47.980;7.830;2023-08-12T09:39:47;5.37;;;4.73;;
1685;SDS011;840;47.980;7.830;2023-08-12T09:42:14;7.57;;;6.03;;
1685;SDS011;840;47.980;7.830;2023-08-12T09:44:42;5.90;;;4.57;;
1685;SDS011;840;47.980;7.830;2023-08-12T09:47:09;5.23;;;4.00;;
1685;SDS011;840;47.980;7.830;2023-08-12T09:49:36;3.90;;;3.50;;
1685;SDS011;840;47.980;7.830;2023-08-12T09:52:04;7.33;;;3.80;;
1685;SDS011;840;47.980;7.830;2023-08-12T09:54:32;5.43;;;4.60;;
1685;SDS011;840;47.980;7.830;2023-08-12T09:57:01;5.43;;;3.77;;
1685;SDS011;840;47.980;7.830;2023-08-12T09:59:30;5.17;;;3.80;;
1685;SDS011;840;47.980;7.830;2023-08-12T10:01:59;3.50;;;3.30;;
1685;SDS011;840;47.980;7.830;2023-08-12T10:04:29;3.63;;;3.33;;
1685;SDS011;840;47.980;7.830;2023-08-12T10:07:01;3.37;;;3.07;;
1685;SDS011;840;47.980;7.830;2023-08-12T10:09:29;2.63;;;2.40;;
1685;SDS011;840;47.980;7.830;2023-08-12T10:11:56;5.03;;;3.30;;
1685;SDS011;840;47.980;7.830;2023-08-12T10:14:25;3.13;;;2.93;;
1685;SDS011;840;47.980;7.830;2023-08-12T10:16:52;3.93;;;3.43;;
1685;SDS011;840;47.980;7.830;2023-08-12T10:19:22;5.50;;;4.07;;
1685;SDS011;840;47.980;7.830;2023-08-12T10:21:53;4.60;;;2.77;;
1685;SDS011;840;47.980;7.830;2023-08-12T10:24:21;5.60;;;2.93;;
1685;SDS011;840;47.980;7.830;2023-08-12T10:26:49;5.40;;;4.10;;
1685;SDS011;840;47.980;7.830;2023-08-12T10:29:16;4.30;;;3.43;;
1685;SDS011;840;47.980;7.830;2023-08-12T10:31:45;6.17;;;5.53;;
1685;SDS011;840;47.980;7.830;2023-08-12T10:34:17;6.10;;;3.57;;
1685;SDS011;840;47.980;7.830;2023-08-12T10:36:45;7.17;;;3.00;;
1685;SDS011;840;47.980;7.830;2023-08-12T10:39:12;4.70;;;4.07;;
1685;SDS011;840;47.980;7.830;2023-08-12T10:41:43;4.77;;;3.40;;
1685;SDS011;840;47.980;7.830;2023-08-12T10:44:19;3.30;;;3.00;;
1685;SDS011;840;47.980;7.830;2023-08-12T10:46:51;3.33;;;3.03;;
1685;SDS011;840;47.980;7.830;2023-08-12T10:49:18;3.87;;;3.57;;
1685;SDS011;840;47.980;7.830;2023-08-12T10:51:46;4.27;;;3.30;;
1685;SDS011;840;47.980;7.830;2023-08-12T10:54:18;3.40;;;3.10;;
1685;SDS011;840;47.980;7.830;2023-08-12T10:57:03;3.40;;;3.10;;
1685;SDS011;840;47.980;7.830;2023-08-12T10:59:52;3.93;;;3.20;;
1685;SDS011;840;47.980;7.830;2023-08-12T11:02:22;2.87;;;2.67;;
1685;SDS011;840;47.980;7.830;2023-08-12T11:04:53;2.57;;;2.37;;
1685;SDS011;840;47.980;7.830;2023-08-12T11:07:22;3.03;;;2.73;;
1685;SDS011;840;47.980;7.830;2023-08-12T11:09:56;3.87;;;3.57;;
1685;SDS011;840;47.980;7.830;2023-08-12T11:12:32;2.00;;;1.80;;
1685;SDS011;840;47.980;7.830;2023-08-12T11:15:01;2.63;;;2.43;;
1685;SDS011;840;47.980;7.830;2023-08-12T11:17:31;4.30;;;2.33;;
1685;SDS011;840;47.980;7.830;2023-08-12T11:20:00;6.00;;;4.20;;
1685;SDS011;840;47.980;7.830;2023-08-12T11:22:29;9.03;;;4.90;;
1685;SDS011;840;47.980;7.830;2023-08-12T11:24:56;6.50;;;4.67;;
1685;SDS011;840;47.980;7.830;2023-08-12T11:27:23;9.90;;;4.40;;
1685;SDS011;840;47.980;7.830;2023-08-12T11:29:49;9.93;;;5.07;;
1685;SDS011;840;47.980;7.830;2023-08-12T11:32:16;7.83;;;3.83;;
1685;SDS011;840;47.980;7.830;2023-08-12T11:34:46;5.30;;;3.87;;
1685;SDS011;840;47.980;7.830;2023-08-12T11:37:13;7.70;;;3.33;;
1685;SDS011;840;47.980;7.830;2023-08-12T11:39:40;4.90;;;4.50;;
1685;SDS011;840;47.980;7.830;2023-08-12T11:42:07;6.33;;;3.90;;
1685;SDS011;840;47.980;7.830;2023-08-12T11:44:34;3.87;;;3.50;;
1685;SDS011;840;47.980;7.830;2023-08-12T11:47:00;4.57;;;4.10;;
1685;SDS011;840;47.980;7.830;2023-08-12T11:49:27;5.90;;;3.73;;
1685;SDS011;840;47.980;7.830;2023-08-12T11:51:55;4.77;;;4.00;;
1685;SDS011;840;47.980;7.830;2023-08-12T11:54:22;4.23;;;3.83;;
1685;SDS011;840;47.980;7.830;2023-08-12T11:56:49;6.50;;;3.87;;
1685;SDS011;840;47.980;7.830;2023-08-12T11:59:16;3.80;;;3.37;;
1685;SDS011;840;47.980;7.830;2023-08-12T12:01:46;4.40;;;4.00;;
1685;SDS011;840;47.980;7.830;2023-08-12T12:04:14;4.83;;;3.50;;
1685;SDS011;840;47.980;7.830;2023-08-12T12:06:42;6.27;;;4.00;;
1685;SDS011;840;47.980;7.830;2023-08-12T12:09:11;6.70;;;4.10;;
1685;SDS011;840;47.980;7.830;2023-08-12T12:11:39;5.97;;;5.20;;
1685;SDS011;840;47.980;7.830;2023-08-12T12:14:07;5.43;;;4.77;;
1685;SDS011;840;47.980;7.830;2023-08-12T12:16:38;3.87;;;3.47;;
1685;SDS011;840;47.980;7.830;2023-08-12T12:19:08;6.20;;;3.70;;
1685;SDS011;840;47.980;7.830;2023-08-12T12:21:50;4.40;;;3.33;;
1685;SDS011;840;47.980;7.830;2023-08-12T12:24:20;4.47;;;3.20;;
1685;SDS011;840;47.980;7.830;2023-08-12T12:26:46;4.00;;;3.10;;
1685;SDS011;840;47.980;7.830;2023-08-12T12:29:13;3.93;;;2.97;;
1685;SDS011;840;47.980;7.830;2023-08-12T12:31:41;4.30;;;3.33;;
1685;SDS011;840;47.980;7.830;2023-08-12T12:34:07;3.90;;;3.50;;
1685;SDS011;840;47.980;7.830;2023-08-12T12:36:35;3.93;;;3.50;;
1685;SDS011;840;47.980;7.830;2023-08-12T12:39:03;3.57;;;3.23;;
1685;SDS011;840;47.980;7.830;2023-08-12T12:41:32;4.63;;;3.43;;
1685;SDS011;840;47.980;7.830;2023-08-12T12:43:59;4.13;;;3.30;;
1685;SDS011;840;47.980;7.830;2023-08-12T12:46:27;4.40;;;3.23;;
1685;SDS011;840;47.980;7.830;2023-08-12T12:48:53;3.77;;;3.47;;
1685;SDS011;840;47.980;7.830;2023-08-12T12:51:20;3.77;;;3.17;;
1685;SDS011;840;47.980;7.830;2023-08-12T12:53:47;3.73;;;3.10;;
1685;SDS011;840;47.980;7.830;2023-08-12T12:56:14;3.73;;;2.67;;
1685;SDS011;840;47.980;7.830;2023-08-12T12:58:42;2.73;;;2.30;;
1685;SDS011;840;47.980;7.830;2023-08-12T13:01:09;2.87;;;2.63;;
1685;SDS011;840;47.980;7.830;2023-08-12T13:03:36;3.20;;;2.53;;
1685;SDS011;840;47.980;7.830;2023-08-12T13:06:03;3.83;;;3.43;;
1685;SDS011;840;47.980;7.830;2023-08-12T13:08:29;2.90;;;2.57;;
1685;SDS011;840;47.980;7.830;2023-08-12T13:10:57;3.17;;;2.93;;
1685;SDS011;840;47.980;7.830;2023-08-12T13:13:24;4.83;;;3.00;;
1685;SDS011;840;47.980;7.830;2023-08-12T13:15:52;3.47;;;2.60;;
1685;SDS011;840;47.980;7.830;2023-08-12T13:18:19;4.07;;;3.67;;
1685;SDS011;840;47.980;7.830;2023-08-12T13:20:45;3.37;;;3.13;;
1685;SDS011;840;47.980;7.830;2023-08-12T13:23:13;3.10;;;2.50;;
1685;SDS011;840;47.980;7.830;2023-08-12T13:25:40;3.37;;;3.00;;
1685;SDS011;840;47.980;7.830;2023-08-12T13:28:07;4.93;;;3.70;;
1685;SDS011;840;47.980;7.830;2023-08-12T13:30:34;3.63;;;3.20;;
1685;SDS011;840;47.980;7.830;2023-08-12T13:33:04;9.10;;;3.90;;
1685;SDS011;840;47.980;7.830;2023-08-12T13:35:31;4.70;;;3.10;;
1685;SDS011;840;47.980;7.830;2023-08-12T13:37:57;3.53;;;2.73;;
1685;SDS011;840;47.980;7.830;2023-08-12T13:40:24;4.40;;;3.50;;
1685;SDS011;840;47.980;7.830;2023-08-12T13:42:51;4.37;;;3.77;;
1685;SDS011;840;47.980;7.830;2023-08-12T13:45:18;4.30;;;3.50;;
1685;SDS011;840;47.980;7.830;2023-08-12T13:47:45;4.20;;;3.00;;
1685;SDS011;840;47.980;7.830;2023-08-12T13:50:13;5.10;;;3.60;;
1685;SDS011;840;47.980;7.830;2023-08-12T13:52:40;3.80;;;3.50;;
1685;SDS011;840;47.980;7.830;2023-08-12T13:55:07;5.30;;;4.10;;
1685;SDS011;840;47.980;7.830;2023-08-12T13:57:34;3.90;;;3.60;;
1685;SDS011;840;47.980;7.830;2023-08-12T14:00:01;3.37;;;3.07;;
1685;SDS011;840;47.980;7.830;2023-08-12T14:02:31;3.90;;;2.80;;
1685;SDS011;840;47.980;7.830;2023-08-12T14:04:57;3.77;;;3.47;;
1685;SDS011;840;47.980;7.830;2023-08-12T14:07:25;3.33;;;2.90;;
1685;SDS011;840;47.980;7.830;2023-08-12T14:09:52;3.40;;;2.60;;
1685;SDS011;840;47.980;7.830;2023-08-12T14:12:19;2.90;;;2.70;;
1685;SDS011;840;47.980;7.830;2023-08-12T14:14:46;2.83;;;2.63;;
1685;SDS011;840;47.980;7.830;2023-08-12T14:17:13;3.63;;;3.33;;
1685;SDS011;840;47.980;7.830;2023-08-12T14:19:42;3.23;;;3.03;;
1685;SDS011;840;47.980;7.830;2023-08-12T14:22:09;5.73;;;3.63;;
1685;SDS011;840;47.980;7.830;2023-08-12T14:24:38;4.10;;;3.80;;
1685;SDS011;840;47.980;7.830;2023-08-12T14:27:04;4.83;;;4.13;;
1685;SDS011;840;47.980;7.830;2023-08-12T14:29:31;3.67;;;3.30;;
1685;SDS011;840;47.980;7.830;2023-08-12T14:31:58;3.27;;;2.90;;
1685;SDS011;840;47.980;7.830;2023-08-12T14:34:25;4.20;;;3.83;;
1685;SDS011;840;47.980;7.830;2023-08-12T14:36:51;3.50;;;3.20;;
1685;SDS011;840;47.980;7.830;2023-08-12T14:39:18;4.53;;;3.40;;
1685;SDS011;840;47.980;7.830;2023-08-12T14:41:47;3.73;;;3.40;;
1685;SDS011;840;47.980;7.830;2023-08-12T14:44:13;3.40;;;3.10;;
1685;SDS011;840;47.980;7.830;2023-08-12T14:46:40;4.23;;;3.47;;
1685;SDS011;840;47.980;7.830;2023-08-12T14:49:07;3.73;;;3.27;;
1685;SDS011;840;47.980;7.830;2023-08-12T14:51:34;3.17;;;2.87;;
1685;SDS011;840;47.980;7.830;2023-08-12T14:54:01;3.80;;;2.80;;
1685;SDS011;840;47.980;7.830;2023-08-12T14:56:27;6.17;;;2.77;;
1685;SDS011;840;47.980;7.830;2023-08-12T14:58:55;2.77;;;2.40;;
1685;SDS011;840;47.980;7.830;2023-08-12T15:01:22;4.40;;;3.97;;
1685;SDS011;840;47.980;7.830;2023-08-12T15:03:52;2.87;;;2.57;;
1685;SDS011;840;47.980;7.830;2023-08-12T15:06:19;3.03;;;2.83;;
1685;SDS011;840;47.980;7.830;2023-08-12T15:08:47;2.93;;;2.73;;
1685;SDS011;840;47.980;7.830;2023-08-12T15:11:14;2.80;;;2.37;;
1685;SDS011;840;47.980;7.830;2023-08-12T15:13:40;3.10;;;2.80;;
1685;SDS011;840;47.980;7.830;2023-08-12T15:16:08;3.53;;;2.60;;
1685;SDS011;840;47.980;7.830;2023-08-12T15:18:36;2.90;;;2.70;;
1685;SDS011;840;47.980;7.830;2023-08-12T15:21:03;4.13;;;3.23;;
1685;SDS011;840;47.980;7.830;2023-08-12T15:23:29;5.43;;;2.60;;
1685;SDS011;840;47.980;7.830;2023-08-12T15:25:58;3.53;;;3.23;;
1685;SDS011;840;47.980;7.830;2023-08-12T15:28:24;4.20;;;2.93;;
1685;SDS011;840;47.980;7.830;2023-08-12T15:30:51;5.13;;;2.97;;
1685;SDS011;840;47.980;7.830;2023-08-12T15:33:19;4.37;;;3.60;;